sensor_id;sensor_type;location;lat;lon;timestamp;P1;durP1;ratioP1;P2;durP2;ratioP2
51852;SDS011;37894;53.172;6.598;2022-12-01T00:01:06;89.88;;;37.95;;
51852;SDS011;37894;53.172;6.598;2022-12-01T00:03:32;89.63;;;38.42;;
51852;SDS011;37894;53.172;6.598;2022-12-01T00:05:59;84.57;;;37.28;;
51852;SDS011;37894;53.172;6.598;2022-12-01T00:08:26;80.85;;;34.85;;
51852;SDS011;37894;53.172;6.598;2022-12-01T00:10:52;87.13;;;36.63;;
51852;SDS011;37894;53.172;6.598;2022-12-01T00:13:18;80.38;;;36.03;;
51852;SDS011;37894;53.172;6.598;2022-12-01T00:15:44;84.80;;;34.40;;
51852;SDS011;37894;53.172;6.598;2022-12-01T00:18:10;77.00;;;34.08;;
51852;SDS011;37894;53.172;6.598;2022-12-01T00:20:35;79.38;;;35.22;;
51852;SDS011;37894;53.172;6.598;2022-12-01T00:23:01;79.93;;;34.80;;
51852;SDS011;37894;53.172;6.598;2022-12-01T00:25:27;84.30;;;35.58;;
51852;SDS011;37894;53.172;6.598;2022-12-01T00:27:53;92.95;;;39.70;;
51852;SDS011;37894;53.172;6.598;2022-12-01T00:30:20;85.85;;;35.85;;
51852;SDS011;37894;53.172;6.598;2022-12-01T00:32:46;94.38;;;37.97;;
51852;SDS011;37894;53.172;6.598;2022-12-01T00:35:13;84.50;;;37.70;;
51852;SDS011;37894;53.172;6.598;2022-12-01T00:37:40;86.07;;;37.85;;
51852;SDS011;37894;53.172;6.598;2022-12-01T00:40:06;96.55;;;38.83;;
51852;SDS011;37894;53.172;6.598;2022-12-01T00:42:33;90.65;;;38.40;;
51852;SDS011;37894;53.172;6.598;2022-12-01T00:44:59;85.72;;;38.95;;
51852;SDS011;37894;53.172;6.598;2022-12-01T00:47:24;89.07;;;37.28;;
51852;SDS011;37894;53.172;6.598;2022-12-01T00:49:50;86.60;;;38.78;;
51852;SDS011;37894;53.172;6.598;2022-12-01T00:52:16;85.47;;;37.67;;
51852;SDS011;37894;53.172;6.598;2022-12-01T00:54:42;90.90;;;35.80;;
51852;SDS011;37894;53.172;6.598;2022-12-01T00:57:09;90.63;;;38.05;;
51852;SDS011;37894;53.172;6.598;2022-12-01T00:59:35;89.35;;;39.22;;
51852;SDS011;37894;53.172;6.598;2022-12-01T01:02:01;91.00;;;38.78;;
51852;SDS011;37894;53.172;6.598;2022-12-01T01:04:31;93.32;;;41.03;;
51852;SDS011;37894;53.172;6.598;2022-12-01T01:06:58;87.93;;;37.58;;
51852;SDS011;37894;53.172;6.598;2022-12-01T01:09:24;97.13;;;41.53;;
51852;SDS011;37894;53.172;6.598;2022-12-01T01:11:50;92.90;;;37.97;;
51852;SDS011;37894;53.172;6.598;2022-12-01T01:14:17;87.47;;;38.42;;
51852;SDS011;37894;53.172;6.598;2022-12-01T01:16:43;89.22;;;37.95;;
51852;SDS011;37894;53.172;6.598;2022-12-01T01:19:09;85.88;;;36.67;;
51852;SDS011;37894;53.172;6.598;2022-12-01T01:21:35;86.53;;;37.17;;
51852;SDS011;37894;53.172;6.598;2022-12-01T01:24:02;87.32;;;36.28;;
51852;SDS011;37894;53.172;6.598;2022-12-01T01:26:29;96.13;;;37.30;;
51852;SDS011;37894;53.172;6.598;2022-12-01T01:28:57;88.13;;;35.28;;
51852;SDS011;37894;53.172;6.598;2022-12-01T01:31:24;84.53;;;35.58;;
51852;SDS011;37894;53.172;6.598;2022-12-01T01:33:51;88.63;;;38.60;;
51852;SDS011;37894;53.172;6.598;2022-12-01T01:36:17;94.65;;;37.88;;
51852;SDS011;37894;53.172;6.598;2022-12-01T01:38:44;100.65;;;38.00;;
51852;SDS011;37894;53.172;6.598;2022-12-01T01:41:10;89.05;;;37.65;;
51852;SDS011;37894;53.172;6.598;2022-12-01T01:46:09;85.85;;;37.45;;
51852;SDS011;37894;53.172;6.598;2022-12-01T01:48:37;96.60;;;37.67;;
51852;SDS011;37894;53.172;6.598;2022-12-01T01:51:04;83.47;;;37.63;;
51852;SDS011;37894;53.172;6.598;2022-12-01T01:53:31;86.97;;;37.72;;
51852;SDS011;37894;53.172;6.598;2022-12-01T01:55:57;86.35;;;38.40;;
51852;SDS011;37894;53.172;6.598;2022-12-01T01:58:24;85.85;;;38.97;;
51852;SDS011;37894;53.172;6.598;2022-12-01T02:00:51;87.57;;;38.17;;
51852;SDS011;37894;53.172;6.598;2022-12-01T02:03:17;86.05;;;37.47;;
51852;SDS011;37894;53.172;6.598;2022-12-01T02:05:44;88.93;;;38.45;;
51852;SDS011;37894;53.172;6.598;2022-12-01T02:08:10;92.45;;;37.95;;
51852;SDS011;37894;53.172;6.598;2022-12-01T02:13:26;86.40;;;36.10;;
51852;SDS011;37894;53.172;6.598;2022-12-01T02:19:52;93.22;;;39.75;;
51852;SDS011;37894;53.172;6.598;2022-12-01T02:22:34;86.90;;;37.13;;
51852;SDS011;37894;53.172;6.598;2022-12-01T02:25:21;94.25;;;38.95;;
51852;SDS011;37894;53.172;6.598;2022-12-01T02:31:17;89.28;;;37.28;;
51852;SDS011;37894;53.172;6.598;2022-12-01T02:34:00;89.60;;;37.50;;
51852;SDS011;37894;53.172;6.598;2022-12-01T02:39:28;94.30;;;40.53;;
51852;SDS011;37894;53.172;6.598;2022-12-01T02:42:08;95.10;;;40.08;;
51852;SDS011;37894;53.172;6.598;2022-12-01T02:45:02;91.55;;;38.97;;
51852;SDS011;37894;53.172;6.598;2022-12-01T02:47:31;94.97;;;39.65;;
51852;SDS011;37894;53.172;6.598;2022-12-01T02:49:58;91.85;;;38.05;;
51852;SDS011;37894;53.172;6.598;2022-12-01T02:52:25;91.05;;;38.95;;
51852;SDS011;37894;53.172;6.598;2022-12-01T02:54:51;100.90;;;40.50;;
51852;SDS011;37894;53.172;6.598;2022-12-01T02:57:17;95.90;;;39.42;;
51852;SDS011;37894;53.172;6.598;2022-12-01T02:59:48;91.35;;;37.75;;
51852;SDS011;37894;53.172;6.598;2022-12-01T03:05:02;94.55;;;37.55;;
51852;SDS011;37894;53.172;6.598;2022-12-01T03:13:29;93.70;;;37.80;;
51852;SDS011;37894;53.172;6.598;2022-12-01T03:21:16;96.10;;;38.05;;
51852;SDS011;37894;53.172;6.598;2022-12-01T03:23:58;93.75;;;37.83;;
51852;SDS011;37894;53.172;6.598;2022-12-01T03:26:30;95.53;;;37.92;;
51852;SDS011;37894;53.172;6.598;2022-12-01T03:28:59;97.57;;;39.00;;
51852;SDS011;37894;53.172;6.598;2022-12-01T03:34:18;106.45;;;38.65;;
51852;SDS011;37894;53.172;6.598;2022-12-01T03:36:52;99.07;;;39.53;;
51852;SDS011;37894;53.172;6.598;2022-12-01T03:39:24;96.68;;;38.42;;
51852;SDS011;37894;53.172;6.598;2022-12-01T03:42:00;95.15;;;38.85;;
51852;SDS011;37894;53.172;6.598;2022-12-01T03:44:35;107.45;;;39.60;;
51852;SDS011;37894;53.172;6.598;2022-12-01T03:47:11;96.15;;;39.90;;
51852;SDS011;37894;53.172;6.598;2022-12-01T03:49:41;99.75;;;38.53;;
51852;SDS011;37894;53.172;6.598;2022-12-01T03:55:13;92.93;;;37.75;;
51852;SDS011;37894;53.172;6.598;2022-12-01T03:58:03;95.43;;;38.00;;
51852;SDS011;37894;53.172;6.598;2022-12-01T04:00:42;98.28;;;39.17;;
51852;SDS011;37894;53.172;6.598;2022-12-01T04:03:17;99.53;;;40.20;;
51852;SDS011;37894;53.172;6.598;2022-12-01T04:05:44;92.93;;;39.10;;
51852;SDS011;37894;53.172;6.598;2022-12-01T04:08:10;103.47;;;40.13;;
51852;SDS011;37894;53.172;6.598;2022-12-01T04:10:36;101.57;;;38.90;;
51852;SDS011;37894;53.172;6.598;2022-12-01T04:13:02;97.03;;;36.80;;
51852;SDS011;37894;53.172;6.598;2022-12-01T04:15:27;94.10;;;38.90;;
51852;SDS011;37894;53.172;6.598;2022-12-01T04:21:35;99.55;;;39.55;;
51852;SDS011;37894;53.172;6.598;2022-12-01T04:24:01;107.07;;;39.45;;
51852;SDS011;37894;53.172;6.598;2022-12-01T04:26:27;94.00;;;39.03;;
51852;SDS011;37894;53.172;6.598;2022-12-01T04:28:54;106.80;;;42.05;;
51852;SDS011;37894;53.172;6.598;2022-12-01T04:31:20;101.75;;;37.33;;
51852;SDS011;37894;53.172;6.598;2022-12-01T04:33:46;96.88;;;40.25;;
51852;SDS011;37894;53.172;6.598;2022-12-01T04:36:12;101.07;;;40.67;;
51852;SDS011;37894;53.172;6.598;2022-12-01T04:38:37;99.25;;;39.17;;
51852;SDS011;37894;53.172;6.598;2022-12-01T04:41:07;103.10;;;41.20;;
51852;SDS011;37894;53.172;6.598;2022-12-01T04:43:36;97.40;;;39.15;;
51852;SDS011;37894;53.172;6.598;2022-12-01T04:46:02;102.30;;;40.10;;
51852;SDS011;37894;53.172;6.598;2022-12-01T04:48:29;109.68;;;42.63;;
51852;SDS011;37894;53.172;6.598;2022-12-01T04:50:55;92.63;;;38.10;;
51852;SDS011;37894;53.172;6.598;2022-12-01T04:53:21;100.93;;;39.85;;
51852;SDS011;37894;53.172;6.598;2022-12-01T04:55:47;105.57;;;40.55;;
51852;SDS011;37894;53.172;6.598;2022-12-01T04:58:13;94.53;;;39.00;;
51852;SDS011;37894;53.172;6.598;2022-12-01T05:00:38;99.88;;;39.50;;
51852;SDS011;37894;53.172;6.598;2022-12-01T05:03:04;98.15;;;39.85;;
51852;SDS011;37894;53.172;6.598;2022-12-01T05:05:30;95.63;;;39.63;;
51852;SDS011;37894;53.172;6.598;2022-12-01T05:07:56;98.18;;;39.03;;
51852;SDS011;37894;53.172;6.598;2022-12-01T05:10:23;106.40;;;39.55;;
51852;SDS011;37894;53.172;6.598;2022-12-01T05:12:49;100.35;;;40.47;;
51852;SDS011;37894;53.172;6.598;2022-12-01T05:15:15;106.57;;;42.55;;
51852;SDS011;37894;53.172;6.598;2022-12-01T05:17:41;105.38;;;40.47;;
51852;SDS011;37894;53.172;6.598;2022-12-01T05:20:07;100.07;;;39.55;;
51852;SDS011;37894;53.172;6.598;2022-12-01T05:22:57;110.38;;;41.88;;
51852;SDS011;37894;53.172;6.598;2022-12-01T05:25:23;96.18;;;39.10;;
51852;SDS011;37894;53.172;6.598;2022-12-01T05:27:49;97.00;;;39.42;;
51852;SDS011;37894;53.172;6.598;2022-12-01T05:30:15;96.65;;;38.65;;
51852;SDS011;37894;53.172;6.598;2022-12-01T05:32:40;100.22;;;40.03;;
51852;SDS011;37894;53.172;6.598;2022-12-01T05:35:07;90.65;;;38.63;;
51852;SDS011;37894;53.172;6.598;2022-12-01T05:37:32;94.45;;;38.28;;
51852;SDS011;37894;53.172;6.598;2022-12-01T05:39:59;87.53;;;37.72;;
51852;SDS011;37894;53.172;6.598;2022-12-01T05:42:25;89.47;;;38.42;;
51852;SDS011;37894;53.172;6.598;2022-12-01T05:44:51;100.45;;;39.22;;
51852;SDS011;37894;53.172;6.598;2022-12-01T05:47:17;89.95;;;36.00;;
51852;SDS011;37894;53.172;6.598;2022-12-01T05:49:43;94.68;;;40.50;;
51852;SDS011;37894;53.172;6.598;2022-12-01T05:52:09;89.05;;;37.55;;
51852;SDS011;37894;53.172;6.598;2022-12-01T05:54:35;87.05;;;36.25;;
51852;SDS011;37894;53.172;6.598;2022-12-01T05:57:00;92.78;;;39.03;;
51852;SDS011;37894;53.172;6.598;2022-12-01T05:59:26;95.22;;;38.40;;
51852;SDS011;37894;53.172;6.598;2022-12-01T06:01:52;82.75;;;33.53;;
51852;SDS011;37894;53.172;6.598;2022-12-01T06:04:18;91.47;;;39.28;;
51852;SDS011;37894;53.172;6.598;2022-12-01T06:06:44;82.55;;;33.42;;
51852;SDS011;37894;53.172;6.598;2022-12-01T06:09:09;92.85;;;35.42;;
51852;SDS011;37894;53.172;6.598;2022-12-01T06:11:36;92.72;;;36.83;;
51852;SDS011;37894;53.172;6.598;2022-12-01T06:14:01;95.35;;;36.17;;
51852;SDS011;37894;53.172;6.598;2022-12-01T06:16:27;99.10;;;38.83;;
51852;SDS011;37894;53.172;6.598;2022-12-01T06:18:52;101.38;;;37.42;;
51852;SDS011;37894;53.172;6.598;2022-12-01T06:21:18;91.60;;;36.63;;
51852;SDS011;37894;53.172;6.598;2022-12-01T06:23:44;102.43;;;38.55;;
51852;SDS011;37894;53.172;6.598;2022-12-01T06:26:10;95.25;;;36.72;;
51852;SDS011;37894;53.172;6.598;2022-12-01T06:28:36;98.43;;;37.58;;
51852;SDS011;37894;53.172;6.598;2022-12-01T06:31:02;106.50;;;39.35;;
51852;SDS011;37894;53.172;6.598;2022-12-01T06:33:27;93.15;;;36.38;;
51852;SDS011;37894;53.172;6.598;2022-12-01T06:36:00;99.28;;;36.63;;
51852;SDS011;37894;53.172;6.598;2022-12-01T06:38:31;101.05;;;38.35;;
51852;SDS011;37894;53.172;6.598;2022-12-01T06:40:58;88.25;;;35.80;;
51852;SDS011;37894;53.172;6.598;2022-12-01T06:43:24;107.28;;;39.47;;
51852;SDS011;37894;53.172;6.598;2022-12-01T06:45:51;109.55;;;40.08;;
51852;SDS011;37894;53.172;6.598;2022-12-01T06:48:17;102.50;;;39.13;;
51852;SDS011;37894;53.172;6.598;2022-12-01T06:50:43;95.20;;;36.55;;
51852;SDS011;37894;53.172;6.598;2022-12-01T06:53:09;100.97;;;38.35;;
51852;SDS011;37894;53.172;6.598;2022-12-01T06:55:35;104.82;;;40.03;;
51852;SDS011;37894;53.172;6.598;2022-12-01T06:58:02;109.57;;;38.85;;
51852;SDS011;37894;53.172;6.598;2022-12-01T07:00:29;97.25;;;38.08;;
51852;SDS011;37894;53.172;6.598;2022-12-01T07:02:55;90.65;;;36.20;;
51852;SDS011;37894;53.172;6.598;2022-12-01T07:05:20;90.40;;;38.30;;
51852;SDS011;37894;53.172;6.598;2022-12-01T07:07:46;100.47;;;37.78;;
51852;SDS011;37894;53.172;6.598;2022-12-01T07:10:13;92.60;;;35.90;;
51852;SDS011;37894;53.172;6.598;2022-12-01T07:12:39;96.35;;;36.80;;
51852;SDS011;37894;53.172;6.598;2022-12-01T07:15:05;87.03;;;34.35;;
51852;SDS011;37894;53.172;6.598;2022-12-01T07:17:32;87.80;;;35.30;;
51852;SDS011;37894;53.172;6.598;2022-12-01T07:19:58;91.35;;;35.22;;
51852;SDS011;37894;53.172;6.598;2022-12-01T07:22:24;76.80;;;32.30;;
51852;SDS011;37894;53.172;6.598;2022-12-01T07:24:50;78.10;;;32.67;;
51852;SDS011;37894;53.172;6.598;2022-12-01T07:27:15;76.00;;;31.90;;
51852;SDS011;37894;53.172;6.598;2022-12-01T07:29:41;91.75;;;34.88;;
51852;SDS011;37894;53.172;6.598;2022-12-01T07:32:07;79.18;;;32.95;;
51852;SDS011;37894;53.172;6.598;2022-12-01T07:34:33;88.82;;;34.33;;
51852;SDS011;37894;53.172;6.598;2022-12-01T07:36:58;81.82;;;34.10;;
51852;SDS011;37894;53.172;6.598;2022-12-01T07:39:24;79.00;;;32.78;;
51852;SDS011;37894;53.172;6.598;2022-12-01T07:41:50;84.75;;;33.53;;
51852;SDS011;37894;53.172;6.598;2022-12-01T07:44:16;79.90;;;32.15;;
51852;SDS011;37894;53.172;6.598;2022-12-01T07:46:42;83.30;;;32.85;;
51852;SDS011;37894;53.172;6.598;2022-12-01T07:49:08;78.55;;;32.20;;
51852;SDS011;37894;53.172;6.598;2022-12-01T07:51:35;76.97;;;33.50;;
51852;SDS011;37894;53.172;6.598;2022-12-01T07:54:03;82.40;;;32.00;;
51852;SDS011;37894;53.172;6.598;2022-12-01T07:56:29;77.93;;;30.95;;
51852;SDS011;37894;53.172;6.598;2022-12-01T07:58:55;79.90;;;32.45;;
51852;SDS011;37894;53.172;6.598;2022-12-01T08:01:23;77.35;;;32.67;;
51852;SDS011;37894;53.172;6.598;2022-12-01T08:03:50;82.65;;;32.55;;
51852;SDS011;37894;53.172;6.598;2022-12-01T08:06:17;85.65;;;34.30;;
51852;SDS011;37894;53.172;6.598;2022-12-01T08:08:44;91.20;;;34.08;;
51852;SDS011;37894;53.172;6.598;2022-12-01T08:11:11;92.47;;;33.15;;
51852;SDS011;37894;53.172;6.598;2022-12-01T08:13:43;70.57;;;30.70;;
51852;SDS011;37894;53.172;6.598;2022-12-01T08:16:10;80.45;;;33.22;;
51852;SDS011;37894;53.172;6.598;2022-12-01T08:18:38;75.65;;;31.67;;
51852;SDS011;37894;53.172;6.598;2022-12-01T08:21:05;74.57;;;31.42;;
51852;SDS011;37894;53.172;6.598;2022-12-01T08:23:32;79.22;;;32.35;;
51852;SDS011;37894;53.172;6.598;2022-12-01T08:25:59;86.13;;;32.85;;
51852;SDS011;37894;53.172;6.598;2022-12-01T08:28:29;84.75;;;31.27;;
51852;SDS011;37894;53.172;6.598;2022-12-01T08:30:55;73.22;;;30.88;;
51852;SDS011;37894;53.172;6.598;2022-12-01T08:33:21;75.60;;;31.23;;
51852;SDS011;37894;53.172;6.598;2022-12-01T08:35:47;71.57;;;29.42;;
51852;SDS011;37894;53.172;6.598;2022-12-01T08:38:12;69.32;;;30.17;;
51852;SDS011;37894;53.172;6.598;2022-12-01T08:40:39;67.43;;;28.13;;
51852;SDS011;37894;53.172;6.598;2022-12-01T08:43:05;63.05;;;28.17;;
51852;SDS011;37894;53.172;6.598;2022-12-01T08:45:31;72.03;;;30.73;;
51852;SDS011;37894;53.172;6.598;2022-12-01T08:47:57;76.10;;;29.58;;
51852;SDS011;37894;53.172;6.598;2022-12-01T08:50:24;69.32;;;28.60;;
51852;SDS011;37894;53.172;6.598;2022-12-01T08:52:51;77.28;;;30.35;;
51852;SDS011;37894;53.172;6.598;2022-12-01T08:55:17;88.28;;;32.55;;
51852;SDS011;37894;53.172;6.598;2022-12-01T08:57:44;83.95;;;31.50;;
51852;SDS011;37894;53.172;6.598;2022-12-01T09:00:09;85.82;;;33.65;;
51852;SDS011;37894;53.172;6.598;2022-12-01T09:02:36;83.05;;;33.78;;
51852;SDS011;37894;53.172;6.598;2022-12-01T09:05:02;74.75;;;30.33;;
51852;SDS011;37894;53.172;6.598;2022-12-01T09:07:28;75.68;;;31.00;;
51852;SDS011;37894;53.172;6.598;2022-12-01T09:09:54;82.75;;;30.60;;
51852;SDS011;37894;53.172;6.598;2022-12-01T09:12:20;77.70;;;29.77;;
51852;SDS011;37894;53.172;6.598;2022-12-01T09:14:46;84.72;;;30.83;;
51852;SDS011;37894;53.172;6.598;2022-12-01T09:17:14;79.80;;;30.90;;
51852;SDS011;37894;53.172;6.598;2022-12-01T09:19:41;75.53;;;31.85;;
51852;SDS011;37894;53.172;6.598;2022-12-01T09:22:07;66.72;;;28.38;;
51852;SDS011;37894;53.172;6.598;2022-12-01T09:24:34;57.75;;;26.92;;
51852;SDS011;37894;53.172;6.598;2022-12-01T09:26:59;61.83;;;27.92;;
51852;SDS011;37894;53.172;6.598;2022-12-01T09:29:27;62.08;;;26.02;;
51852;SDS011;37894;53.172;6.598;2022-12-01T09:31:54;55.05;;;25.23;;
51852;SDS011;37894;53.172;6.598;2022-12-01T09:34:21;53.00;;;26.08;;
51852;SDS011;37894;53.172;6.598;2022-12-01T09:36:47;55.42;;;24.38;;
51852;SDS011;37894;53.172;6.598;2022-12-01T09:39:15;47.25;;;23.20;;
51852;SDS011;37894;53.172;6.598;2022-12-01T09:42:04;45.08;;;23.30;;
51852;SDS011;37894;53.172;6.598;2022-12-01T09:44:37;50.05;;;22.67;;
51852;SDS011;37894;53.172;6.598;2022-12-01T09:50:21;54.47;;;24.25;;
51852;SDS011;37894;53.172;6.598;2022-12-01T09:55:15;55.97;;;26.05;;
51852;SDS011;37894;53.172;6.598;2022-12-01T09:57:43;50.22;;;23.58;;
51852;SDS011;37894;53.172;6.598;2022-12-01T10:03:22;54.53;;;25.25;;
51852;SDS011;37894;53.172;6.598;2022-12-01T10:05:45;50.30;;;24.80;;
51852;SDS011;37894;53.172;6.598;2022-12-01T10:08:15;59.25;;;26.45;;
51852;SDS011;37894;53.172;6.598;2022-12-01T10:10:46;66.55;;;28.77;;
51852;SDS011;37894;53.172;6.598;2022-12-01T10:13:17;88.68;;;35.95;;
51852;SDS011;37894;53.172;6.598;2022-12-01T10:15:53;95.60;;;37.28;;
51852;SDS011;37894;53.172;6.598;2022-12-01T10:24:32;60.00;;;28.85;;
51852;SDS011;37894;53.172;6.598;2022-12-01T10:27:24;75.35;;;30.60;;
51852;SDS011;37894;53.172;6.598;2022-12-01T10:30:01;68.80;;;29.05;;
51852;SDS011;37894;53.172;6.598;2022-12-01T10:33:04;61.50;;;27.05;;
51852;SDS011;37894;53.172;6.598;2022-12-01T10:35:45;65.68;;;28.85;;
51852;SDS011;37894;53.172;6.598;2022-12-01T10:38:21;68.18;;;30.70;;
51852;SDS011;37894;53.172;6.598;2022-12-01T10:40:57;65.72;;;29.73;;
51852;SDS011;37894;53.172;6.598;2022-12-01T10:43:31;59.45;;;29.10;;
51852;SDS011;37894;53.172;6.598;2022-12-01T10:46:06;61.05;;;27.98;;
51852;SDS011;37894;53.172;6.598;2022-12-01T10:48:59;53.97;;;27.60;;
51852;SDS011;37894;53.172;6.598;2022-12-01T10:51:33;56.40;;;25.83;;
51852;SDS011;37894;53.172;6.598;2022-12-01T10:54:12;63.05;;;27.02;;
51852;SDS011;37894;53.172;6.598;2022-12-01T10:56:41;54.75;;;26.60;;
51852;SDS011;37894;53.172;6.598;2022-12-01T11:02:02;57.03;;;26.63;;
51852;SDS011;37894;53.172;6.598;2022-12-01T11:04:41;53.55;;;26.60;;
51852;SDS011;37894;53.172;6.598;2022-12-01T11:07:17;53.22;;;25.85;;
51852;SDS011;37894;53.172;6.598;2022-12-01T11:10:11;55.75;;;26.42;;
51852;SDS011;37894;53.172;6.598;2022-12-01T11:12:41;55.50;;;27.17;;
51852;SDS011;37894;53.172;6.598;2022-12-01T11:15:26;54.70;;;26.17;;
51852;SDS011;37894;53.172;6.598;2022-12-01T11:17:59;57.08;;;27.08;;
51852;SDS011;37894;53.172;6.598;2022-12-01T11:20:30;56.87;;;26.50;;
51852;SDS011;37894;53.172;6.598;2022-12-01T11:28:27;57.78;;;28.65;;
51852;SDS011;37894;53.172;6.598;2022-12-01T11:30:55;53.53;;;25.80;;
51852;SDS011;37894;53.172;6.598;2022-12-01T11:33:25;52.95;;;27.27;;
51852;SDS011;37894;53.172;6.598;2022-12-01T11:35:53;53.42;;;24.92;;
51852;SDS011;37894;53.172;6.598;2022-12-01T11:38:23;55.55;;;26.60;;
51852;SDS011;37894;53.172;6.598;2022-12-01T11:40:56;59.85;;;27.83;;
51852;SDS011;37894;53.172;6.598;2022-12-01T11:43:33;58.03;;;26.27;;
51852;SDS011;37894;53.172;6.598;2022-12-01T11:46:02;55.35;;;26.48;;
51852;SDS011;37894;53.172;6.598;2022-12-01T11:48:31;53.55;;;26.33;;
51852;SDS011;37894;53.172;6.598;2022-12-01T11:53:35;53.78;;;26.45;;
51852;SDS011;37894;53.172;6.598;2022-12-01T11:56:12;55.28;;;27.55;;
51852;SDS011;37894;53.172;6.598;2022-12-01T11:58:48;55.00;;;27.08;;
51852;SDS011;37894;53.172;6.598;2022-12-01T12:01:25;52.90;;;26.58;;
51852;SDS011;37894;53.172;6.598;2022-12-01T12:18:23;55.40;;;27.25;;
51852;SDS011;37894;53.172;6.598;2022-12-01T12:34:56;53.63;;;24.02;;
51852;SDS011;37894;53.172;6.598;2022-12-01T12:53:53;43.38;;;23.42;;
51852;SDS011;37894;53.172;6.598;2022-12-01T12:56:25;43.28;;;23.17;;
51852;SDS011;37894;53.172;6.598;2022-12-01T12:58:57;38.67;;;21.13;;
51852;SDS011;37894;53.172;6.598;2022-12-01T13:01:36;41.70;;;22.63;;
51852;SDS011;37894;53.172;6.598;2022-12-01T13:09:44;37.88;;;20.98;;
51852;SDS011;37894;53.172;6.598;2022-12-01T13:14:55;40.60;;;21.33;;
51852;SDS011;37894;53.172;6.598;2022-12-01T13:17:30;45.13;;;23.33;;
51852;SDS011;37894;53.172;6.598;2022-12-01T13:20:00;49.60;;;23.92;;
51852;SDS011;37894;53.172;6.598;2022-12-01T13:22:30;42.08;;;23.00;;
51852;SDS011;37894;53.172;6.598;2022-12-01T13:24:58;43.80;;;23.83;;
51852;SDS011;37894;53.172;6.598;2022-12-01T13:27:25;44.38;;;23.83;;
51852;SDS011;37894;53.172;6.598;2022-12-01T13:32:27;48.33;;;24.98;;
51852;SDS011;37894;53.172;6.598;2022-12-01T13:35:04;45.75;;;23.50;;
51852;SDS011;37894;53.172;6.598;2022-12-01T13:40:21;49.58;;;24.80;;
51852;SDS011;37894;53.172;6.598;2022-12-01T13:45:21;47.40;;;24.42;;
51852;SDS011;37894;53.172;6.598;2022-12-01T13:58:25;54.95;;;27.98;;
51852;SDS011;37894;53.172;6.598;2022-12-01T14:03:57;47.80;;;26.63;;
51852;SDS011;37894;53.172;6.598;2022-12-01T14:09:05;53.65;;;25.80;;
51852;SDS011;37894;53.172;6.598;2022-12-01T14:11:39;51.65;;;26.80;;
51852;SDS011;37894;53.172;6.598;2022-12-01T14:14:18;50.47;;;26.20;;
51852;SDS011;37894;53.172;6.598;2022-12-01T14:16:48;53.88;;;26.98;;
51852;SDS011;37894;53.172;6.598;2022-12-01T14:22:03;58.53;;;27.73;;
51852;SDS011;37894;53.172;6.598;2022-12-01T14:24:32;53.17;;;28.30;;
51852;SDS011;37894;53.172;6.598;2022-12-01T14:27:00;52.58;;;27.35;;
51852;SDS011;37894;53.172;6.598;2022-12-01T14:29:29;56.63;;;27.85;;
51852;SDS011;37894;53.172;6.598;2022-12-01T14:34:25;60.53;;;29.05;;
51852;SDS011;37894;53.172;6.598;2022-12-01T14:37:09;57.97;;;29.02;;
51852;SDS011;37894;53.172;6.598;2022-12-01T14:40:32;59.20;;;29.60;;
51852;SDS011;37894;53.172;6.598;2022-12-01T14:42:54;56.58;;;29.85;;
51852;SDS011;37894;53.172;6.598;2022-12-01T14:46:13;55.75;;;28.42;;
51852;SDS011;37894;53.172;6.598;2022-12-01T14:48:36;54.85;;;28.65;;
51852;SDS011;37894;53.172;6.598;2022-12-01T14:51:49;57.22;;;28.52;;
51852;SDS011;37894;53.172;6.598;2022-12-01T14:54:00;56.65;;;30.20;;
51852;SDS011;37894;53.172;6.598;2022-12-01T14:56:28;59.10;;;30.15;;
51852;SDS011;37894;53.172;6.598;2022-12-01T14:58:57;60.28;;;30.45;;
51852;SDS011;37894;53.172;6.598;2022-12-01T15:01:32;58.97;;;30.88;;
51852;SDS011;37894;53.172;6.598;2022-12-01T15:04:01;58.90;;;31.05;;
51852;SDS011;37894;53.172;6.598;2022-12-01T15:06:29;60.80;;;31.08;;
51852;SDS011;37894;53.172;6.598;2022-12-01T15:14:28;65.32;;;33.03;;
51852;SDS011;37894;53.172;6.598;2022-12-01T15:16:56;62.45;;;32.58;;
51852;SDS011;37894;53.172;6.598;2022-12-01T15:19:23;67.03;;;34.45;;
51852;SDS011;37894;53.172;6.598;2022-12-01T15:21:58;66.72;;;31.67;;
51852;SDS011;37894;53.172;6.598;2022-12-01T15:24:28;70.38;;;35.45;;
51852;SDS011;37894;53.172;6.598;2022-12-01T15:26:55;70.03;;;35.00;;
51852;SDS011;37894;53.172;6.598;2022-12-01T15:29:23;72.63;;;35.67;;
51852;SDS011;37894;53.172;6.598;2022-12-01T15:34:26;72.35;;;35.88;;
51852;SDS011;37894;53.172;6.598;2022-12-01T15:36:54;75.57;;;35.92;;
51852;SDS011;37894;53.172;6.598;2022-12-01T15:39:32;75.05;;;35.85;;
51852;SDS011;37894;53.172;6.598;2022-12-01T15:42:01;75.20;;;35.25;;
51852;SDS011;37894;53.172;6.598;2022-12-01T15:44:31;68.63;;;35.03;;
51852;SDS011;37894;53.172;6.598;2022-12-01T15:47:00;73.10;;;35.00;;
51852;SDS011;37894;53.172;6.598;2022-12-01T15:55:48;66.28;;;33.08;;
51852;SDS011;37894;53.172;6.598;2022-12-01T15:58:18;75.03;;;35.30;;
51852;SDS011;37894;53.172;6.598;2022-12-01T16:03:32;77.32;;;35.75;;
51852;SDS011;37894;53.172;6.598;2022-12-01T16:06:11;75.50;;;35.83;;
51852;SDS011;37894;53.172;6.598;2022-12-01T16:08:37;73.05;;;34.22;;
51852;SDS011;37894;53.172;6.598;2022-12-01T16:11:14;72.15;;;34.92;;
51852;SDS011;37894;53.172;6.598;2022-12-01T16:13:48;69.47;;;33.08;;
51852;SDS011;37894;53.172;6.598;2022-12-01T16:16:28;72.93;;;34.80;;
51852;SDS011;37894;53.172;6.598;2022-12-01T16:19:02;78.60;;;37.30;;
51852;SDS011;37894;53.172;6.598;2022-12-01T16:21:41;74.40;;;35.95;;
51852;SDS011;37894;53.172;6.598;2022-12-01T16:24:37;76.47;;;37.17;;
51852;SDS011;37894;53.172;6.598;2022-12-01T16:27:04;76.40;;;35.30;;
51852;SDS011;37894;53.172;6.598;2022-12-01T16:32:43;80.95;;;35.92;;
51852;SDS011;37894;53.172;6.598;2022-12-01T16:35:22;84.70;;;39.50;;
51852;SDS011;37894;53.172;6.598;2022-12-01T16:37:50;69.95;;;33.90;;
51852;SDS011;37894;53.172;6.598;2022-12-01T16:40:17;75.07;;;37.22;;
51852;SDS011;37894;53.172;6.598;2022-12-01T16:42:43;69.68;;;34.75;;
51852;SDS011;37894;53.172;6.598;2022-12-01T16:45:10;75.03;;;36.97;;
51852;SDS011;37894;53.172;6.598;2022-12-01T16:47:39;67.65;;;36.95;;
51852;SDS011;37894;53.172;6.598;2022-12-01T16:50:05;72.65;;;35.65;;
51852;SDS011;37894;53.172;6.598;2022-12-01T16:52:31;73.85;;;37.30;;
51852;SDS011;37894;53.172;6.598;2022-12-01T16:54:57;76.60;;;37.03;;
51852;SDS011;37894;53.172;6.598;2022-12-01T16:57:23;83.13;;;36.72;;
51852;SDS011;37894;53.172;6.598;2022-12-01T16:59:49;70.72;;;36.35;;
51852;SDS011;37894;53.172;6.598;2022-12-01T17:02:15;71.60;;;35.35;;
51852;SDS011;37894;53.172;6.598;2022-12-01T17:04:41;76.68;;;36.83;;
51852;SDS011;37894;53.172;6.598;2022-12-01T17:07:07;70.82;;;36.78;;
51852;SDS011;37894;53.172;6.598;2022-12-01T17:09:33;72.65;;;35.47;;
51852;SDS011;37894;53.172;6.598;2022-12-01T17:11:58;64.13;;;34.35;;
51852;SDS011;37894;53.172;6.598;2022-12-01T17:14:24;70.05;;;34.72;;
51852;SDS011;37894;53.172;6.598;2022-12-01T17:16:50;69.80;;;37.60;;
51852;SDS011;37894;53.172;6.598;2022-12-01T17:19:16;68.13;;;34.97;;
51852;SDS011;37894;53.172;6.598;2022-12-01T17:21:42;69.50;;;35.58;;